الصفحة الرئيسية
METAR-TAF:

METAR-TAF

مطار :

مطار سوهاج الدولي

سوهاج, مصر

دائرة عرض: 26-20-25N, خط طول: 31-44-20E, ارتفاع: 70 متر

مراقبة الطقس الحالي

تاريخ ووقت الإصدار 1ساعة و 39 دقيقة قبل الساعة 16:00UTC
ريح 4 عقدة من الشمال/الشمال الشرقي
درجة الحرارة 16°درجة مئوية
الرطوبة 42%
ضغط 1021 hPa
الرؤية 10 كم أو أكثر
الغيوم لا تقل 1500 م ولا وجود لمزنة ركامية السحاب الأسود

METAR: HESG 161600Z 02004KT CAVOK 16/03 Q1021 NOSIG

زمن: 19:39 (17:39 UTC)

توقعات

تاريخ ووقت الإصدار 6ساعات و 39 دقيقة قبل الساعة 11:00UTC
التوقعات صالحة من16 الساعة 12 UTC إلى 17 الساعة 18 UTC
ريح 12 عقدة من الشمال الغربي
الرؤية 10 كم أو أكثر
الغيوم لا تقل 1500 م ولا وجود لمزنة ركامية السحاب الأسود

TAF: HESG 161100Z 1612/1718 32012KT CAVOK

أرصاد الطقس والتوقعات من أكثر من 4000 مطار (تقارير الطقس للمطار METAR والتنبؤ بالطقس بالمطارTAF).

المحطات المتاحة هي النقط الصفراء والحمراء على الخريطة.

حرك المؤشر فوق النقطة لمعرفة اسم المحطة.

ثم انقر لمعرفة أرصاد وتوقعات الطقس.

لتغيير الخارطة: اضغط على الأزرار الخضراء مع رمز الصليب الأسود للتكبير. على الزر الأخضر مع شرطة للتصغير، أو على الأسهم الخضراء للخرائط المجاورة.


METAR-TAF: